createdAt,value
2023-04-23T00:00:59.360Z,17.02
2023-04-23T00:03:29.986Z,16.98
2023-04-23T00:06:00.171Z,16.96
2023-04-23T00:08:30.400Z,17.10
2023-04-23T00:10:59.911Z,16.86
2023-04-23T00:13:29.626Z,17.02
2023-04-23T00:16:03.522Z,17.10
2023-04-23T00:18:34.208Z,17.00
2023-04-23T00:21:03.725Z,16.84
2023-04-23T00:23:33.011Z,16.79
2023-04-23T00:26:03.255Z,16.94
2023-04-23T00:28:35.432Z,16.80
2023-04-23T00:31:07.060Z,16.84
2023-04-23T00:33:39.418Z,16.88
2023-04-23T00:36:08.825Z,16.79
2023-04-23T00:38:38.226Z,16.84
2023-04-23T00:41:08.150Z,16.69
2023-04-23T00:43:38.949Z,16.67
2023-04-23T00:46:08.584Z,16.67
2023-04-23T00:48:38.195Z,16.73
2023-04-23T00:51:08.021Z,16.79
2023-04-23T00:53:37.205Z,16.77
2023-04-23T00:56:06.965Z,16.92
2023-04-23T00:58:36.583Z,16.79
2023-04-23T01:01:07.148Z,16.93
2023-04-23T01:03:39.032Z,16.83
2023-04-23T01:06:19.011Z,16.82
2023-04-23T01:08:58.325Z,16.92
2023-04-23T01:11:31.631Z,16.90
2023-04-23T01:14:04.103Z,16.67
2023-04-23T01:16:33.722Z,16.73
2023-04-23T01:19:11.485Z,16.76
2023-04-23T01:21:44.153Z,16.66
2023-04-23T01:24:28.037Z,16.60
2023-04-23T01:26:57.274Z,16.63
2023-04-23T01:29:27.232Z,16.62
2023-04-23T01:31:56.919Z,16.60
2023-04-23T01:34:26.289Z,16.54
2023-04-23T01:36:58.494Z,16.53
2023-04-23T01:39:27.840Z,16.48
2023-04-23T01:42:00.221Z,16.54
2023-04-23T01:44:32.903Z,16.49
2023-04-23T01:47:09.739Z,16.40
2023-04-23T01:49:38.950Z,16.37
2023-04-23T01:52:11.146Z,16.29
2023-04-23T01:54:43.233Z,16.05
2023-04-23T01:57:33.479Z,15.95
2023-04-23T02:00:09.315Z,15.91
2023-04-23T02:02:44.044Z,15.98
2023-04-23T02:05:20.347Z,15.84
2023-04-23T02:07:51.509Z,15.77
2023-04-23T02:10:30.830Z,15.70
2023-04-23T02:13:03.970Z,15.63
2023-04-23T02:15:35.601Z,15.69
2023-04-23T02:18:22.172Z,15.73
2023-04-23T02:21:05.430Z,15.78
2023-04-23T02:23:36.156Z,15.76
2023-04-23T02:26:05.985Z,15.64
2023-04-23T02:28:38.788Z,15.54
2023-04-23T02:32:21.700Z,15.33
2023-04-23T02:34:10.594Z,15.24
2023-04-23T02:36:40.382Z,15.23
2023-04-23T02:39:18.487Z,15.07
2023-04-23T02:41:59.468Z,14.99
2023-04-23T02:44:33.079Z,14.71
2023-04-23T02:47:05.281Z,14.29
2023-04-23T02:49:37.319Z,14.14
2023-04-23T02:52:28.356Z,13.90
2023-04-23T02:55:00.808Z,13.77
2023-04-23T02:57:30.472Z,13.80
2023-04-23T03:00:00.193Z,13.73
2023-04-23T03:02:39.632Z,13.64
2023-04-23T03:05:12.022Z,13.45
2023-04-23T03:07:44.140Z,13.31
2023-04-23T03:10:13.166Z,13.22
2023-04-23T03:12:46.271Z,13.28
2023-04-23T03:15:21.083Z,13.29
2023-04-23T03:17:52.536Z,13.30
2023-04-23T03:20:22.713Z,13.12
2023-04-23T03:22:52.757Z,12.78
2023-04-23T03:25:25.194Z,12.90
2023-04-23T03:27:55.185Z,13.18
2023-04-23T03:30:24.735Z,13.10
2023-04-23T03:32:57.102Z,12.85
2023-04-23T03:35:27.236Z,13.01
2023-04-23T03:37:58.453Z,13.06
2023-04-23T03:43:21.442Z,13.00
2023-04-23T03:46:09.474Z,13.02
2023-04-23T03:48:47.774Z,12.97
2023-04-23T03:51:28.961Z,12.99
2023-04-23T03:53:58.730Z,12.99
2023-04-23T03:56:33.799Z,13.07
2023-04-23T03:59:24.376Z,12.98
2023-04-23T04:02:02.430Z,12.97
2023-04-23T04:04:41.791Z,12.94
2023-04-23T04:07:13.023Z,12.95
2023-04-23T04:09:42.069Z,12.96
2023-04-23T04:12:11.257Z,12.88
2023-04-23T04:14:40.882Z,12.92
2023-04-23T04:17:10.403Z,12.99
2023-04-23T04:19:40.305Z,13.01
2023-04-23T04:22:11.250Z,12.98
2023-04-23T04:24:42.889Z,12.99
2023-04-23T04:27:12.530Z,12.97
2023-04-23T04:29:44.312Z,12.90
2023-04-23T04:32:14.393Z,12.66
2023-04-23T04:34:44.108Z,12.54
2023-04-23T04:37:13.777Z,12.77
2023-04-23T04:39:43.377Z,12.81
2023-04-23T04:42:14.014Z,12.76
2023-04-23T04:44:44.281Z,12.74
2023-04-23T04:47:14.367Z,12.81
2023-04-23T04:49:43.393Z,12.80
2023-04-23T04:52:16.200Z,12.76
2023-04-23T04:54:45.316Z,12.70
2023-04-23T04:57:14.354Z,12.53
2023-04-23T04:59:43.937Z,12.49
2023-04-23T05:02:13.294Z,12.39
2023-04-23T05:04:42.625Z,12.32
2023-04-23T05:07:11.983Z,12.41
2023-04-23T05:09:44.775Z,12.65
2023-04-23T05:12:14.136Z,12.60
2023-04-23T05:14:43.225Z,12.60
2023-04-23T05:17:12.879Z,12.28
2023-04-23T05:19:41.830Z,12.20
2023-04-23T05:22:12.433Z,12.12
2023-04-23T05:24:41.917Z,12.27
2023-04-23T05:27:11.111Z,12.37
2023-04-23T05:29:39.948Z,12.04
2023-04-23T05:32:11.857Z,12.42
2023-04-23T05:34:41.488Z,12.50
2023-04-23T05:37:10.600Z,12.41
2023-04-23T05:39:40.095Z,12.39
2023-04-23T05:42:09.077Z,12.24
2023-04-23T05:44:38.023Z,11.86
2023-04-23T05:47:07.057Z,11.63
2023-04-23T05:49:36.345Z,12.16
2023-04-23T05:52:05.471Z,12.19
2023-04-23T05:54:34.498Z,12.10
2023-04-23T05:57:03.820Z,11.82
2023-04-23T05:59:33.447Z,11.69
2023-04-23T06:02:03.159Z,11.67
2023-04-23T06:04:32.692Z,12.00
2023-04-23T06:07:01.950Z,12.07
2023-04-23T06:09:31.003Z,12.18
2023-04-23T06:12:00.453Z,12.30
2023-04-23T06:14:29.536Z,12.33
2023-04-23T06:16:58.514Z,12.42
2023-04-23T06:19:28.786Z,12.41
2023-04-23T06:21:57.970Z,12.25
2023-04-23T06:24:29.148Z,12.35
2023-04-23T06:26:58.659Z,12.43
2023-04-23T06:29:29.804Z,12.45
2023-04-23T06:32:05.914Z,12.42
2023-04-23T06:34:34.921Z,12.43
2023-04-23T06:37:04.166Z,12.40
2023-04-23T06:39:33.216Z,12.42
2023-04-23T06:42:02.517Z,12.41
2023-04-23T06:44:37.217Z,12.42
2023-04-23T06:47:06.895Z,12.39
2023-04-23T06:49:36.101Z,12.34
2023-04-23T06:52:07.881Z,12.33
2023-04-23T06:54:36.991Z,12.31
2023-04-23T06:57:05.958Z,12.29
2023-04-23T06:59:34.970Z,12.27
2023-04-23T07:02:04.610Z,12.25
2023-04-23T07:04:34.492Z,12.35
2023-04-23T07:07:04.005Z,12.36
2023-04-23T07:09:33.003Z,12.25
2023-04-23T07:12:03.084Z,12.24
2023-04-23T07:14:32.136Z,12.23
2023-04-23T07:17:03.475Z,12.21
2023-04-23T07:19:32.960Z,12.12
2023-04-23T07:22:02.185Z,11.94
2023-04-23T07:24:31.216Z,12.20
2023-04-23T07:27:00.300Z,12.28
2023-04-23T07:29:38.454Z,12.27
2023-04-23T07:32:07.576Z,12.11
2023-04-23T07:34:39.580Z,12.11
2023-04-23T07:37:08.931Z,11.85
2023-04-23T07:39:37.967Z,11.96
2023-04-23T07:42:07.353Z,11.78
2023-04-23T07:44:37.082Z,11.92
2023-04-23T07:47:06.331Z,12.16
2023-04-23T07:49:35.314Z,11.88
2023-04-23T07:52:07.676Z,11.89
2023-04-23T07:54:36.695Z,11.76
2023-04-23T07:57:06.158Z,11.68
2023-04-23T07:59:35.505Z,11.72
2023-04-23T08:02:04.410Z,11.84
2023-04-23T08:04:33.715Z,11.62
2023-04-23T08:07:02.833Z,11.65
2023-04-23T08:09:31.991Z,11.89
2023-04-23T08:12:04.524Z,11.83
2023-04-23T08:14:33.718Z,11.66
2023-04-23T08:17:06.659Z,11.80
2023-04-23T08:19:35.719Z,11.90
2023-04-23T08:22:04.824Z,11.63
2023-04-23T08:24:34.197Z,11.65
2023-04-23T08:27:03.922Z,11.59
2023-04-23T08:29:33.187Z,11.62
2023-04-23T08:32:02.270Z,11.56
2023-04-23T08:34:31.432Z,11.63
2023-04-23T08:37:00.600Z,11.71
2023-04-23T08:39:31.414Z,11.62
2023-04-23T08:42:11.970Z,11.67
2023-04-23T08:44:44.125Z,11.81
2023-04-23T08:47:21.092Z,11.93
2023-04-23T08:49:54.885Z,11.87
2023-04-23T08:52:26.080Z,11.63
2023-04-23T08:55:00.852Z,11.58
2023-04-23T08:57:31.959Z,11.61
2023-04-23T09:00:06.961Z,11.56
2023-04-23T09:02:37.715Z,11.61
2023-04-23T09:05:07.446Z,11.78
2023-04-23T09:07:39.793Z,11.75
2023-04-23T09:10:11.173Z,11.79
2023-04-23T09:12:43.135Z,11.55
2023-04-23T09:15:13.579Z,11.54
2023-04-23T09:17:47.577Z,11.72
2023-04-23T09:20:17.402Z,11.58
2023-04-23T09:22:48.811Z,11.65
2023-04-23T09:25:20.616Z,11.53
2023-04-23T09:27:51.623Z,11.57
2023-04-23T09:30:26.204Z,11.45
2023-04-23T09:32:57.338Z,11.70
2023-04-23T09:35:29.325Z,11.67
2023-04-23T09:37:58.705Z,11.64
2023-04-23T09:40:28.571Z,11.66
2023-04-23T09:42:57.678Z,11.56
2023-04-23T09:45:26.967Z,11.62
2023-04-23T09:47:57.976Z,11.49
2023-04-23T09:50:41.204Z,11.36
2023-04-23T09:53:11.716Z,11.11
2023-04-23T09:55:46.210Z,11.02
2023-04-23T09:58:16.911Z,11.11
2023-04-23T10:00:46.178Z,11.12
2023-04-23T10:03:16.649Z,11.01
2023-04-23T10:06:00.373Z,11.04
2023-04-23T10:08:33.685Z,11.29
2023-04-23T10:11:13.791Z,11.12
2023-04-23T10:13:52.471Z,11.02
2023-04-23T10:16:45.995Z,11.06
2023-04-23T10:19:19.018Z,11.06
2023-04-23T10:22:02.399Z,11.09
2023-04-23T10:24:42.359Z,11.00
2023-04-23T10:27:30.721Z,10.92
2023-04-23T10:30:08.656Z,10.97
2023-04-23T10:32:39.639Z,11.09
2023-04-23T10:35:10.488Z,11.12
2023-04-23T10:37:40.315Z,11.07
2023-04-23T10:40:15.245Z,11.20
2023-04-23T10:42:48.563Z,11.31
2023-04-23T10:45:24.698Z,11.07
2023-04-23T10:47:57.548Z,10.77
2023-04-23T10:50:28.796Z,10.71
2023-04-23T10:53:01.252Z,10.95
2023-04-23T10:55:33.300Z,10.99
2023-04-23T10:58:09.523Z,11.19
2023-04-23T11:00:44.969Z,11.04
2023-04-23T11:03:44.841Z,11.10
2023-04-23T11:06:18.889Z,10.86
2023-04-23T11:08:57.759Z,10.89
2023-04-23T11:11:42.677Z,11.06
2023-04-23T11:14:15.148Z,11.08
2023-04-23T11:16:44.621Z,10.94
2023-04-23T11:19:13.758Z,10.79
2023-04-23T11:22:09.135Z,10.62
2023-04-23T11:24:43.557Z,10.67
2023-04-23T11:27:17.534Z,11.12
2023-04-23T11:29:47.812Z,10.89
2023-04-23T11:32:18.460Z,10.66
2023-04-23T11:34:51.321Z,10.61
2023-04-23T11:37:20.603Z,10.69
2023-04-23T11:39:50.058Z,10.71
2023-04-23T11:42:22.787Z,10.75
2023-04-23T11:44:51.764Z,10.70
2023-04-23T11:47:28.933Z,10.76
2023-04-23T11:50:02.168Z,10.71
2023-04-23T11:52:31.479Z,10.98
2023-04-23T11:55:11.281Z,10.98
2023-04-23T11:57:45.059Z,10.84
2023-04-23T12:00:16.915Z,10.89
2023-04-23T12:02:57.055Z,10.88
2023-04-23T12:05:34.412Z,10.91
2023-04-23T12:08:14.107Z,11.10
2023-04-23T12:10:56.402Z,11.07
2023-04-23T12:13:32.167Z,10.99
2023-04-23T12:16:05.766Z,10.86
2023-04-23T12:18:46.445Z,11.14
2023-04-23T12:21:16.286Z,11.09
2023-04-23T12:23:45.699Z,10.98
2023-04-23T12:26:17.112Z,11.11
2023-04-23T12:28:56.325Z,11.08
2023-04-23T12:31:30.623Z,10.92
2023-04-23T12:34:10.120Z,11.03
2023-04-23T12:36:43.628Z,11.11
2023-04-23T12:39:30.526Z,11.19
2023-04-23T12:42:05.646Z,11.31
2023-04-23T12:44:36.970Z,11.21
2023-04-23T12:47:10.155Z,10.96
2023-04-23T12:49:42.824Z,10.81
2023-04-23T12:52:15.225Z,10.94
2023-04-23T12:54:45.774Z,10.98
2023-04-23T12:57:15.211Z,11.00
2023-04-23T12:59:44.384Z,10.91
2023-04-23T13:02:13.561Z,11.02
2023-04-23T13:04:43.218Z,10.77
2023-04-23T13:07:12.319Z,11.05
2023-04-23T13:09:42.257Z,10.94
2023-04-23T13:12:11.537Z,10.89
2023-04-23T13:14:40.468Z,10.78
2023-04-23T13:17:09.674Z,10.97
2023-04-23T13:19:41.601Z,10.87
2023-04-23T13:22:11.084Z,10.93
2023-04-23T13:24:40.169Z,11.05
2023-04-23T13:27:12.093Z,10.77
2023-04-23T13:29:42.999Z,10.79
2023-04-23T13:32:17.171Z,10.96
2023-04-23T13:34:49.232Z,10.93
2023-04-23T13:37:20.753Z,11.04
2023-04-23T13:39:49.780Z,10.96
2023-04-23T13:42:20.379Z,11.04
2023-04-23T13:44:52.722Z,10.89
2023-04-23T13:47:21.863Z,10.89
2023-04-23T13:49:51.172Z,10.76
2023-04-23T13:52:20.116Z,10.71
2023-04-23T13:54:49.946Z,10.90
2023-04-23T13:57:18.937Z,10.83
2023-04-23T13:59:48.021Z,10.72
2023-04-23T14:02:17.953Z,10.67
2023-04-23T14:04:47.395Z,10.62
2023-04-23T14:07:19.298Z,10.66
2023-04-23T14:09:48.469Z,10.69
2023-04-23T14:12:17.510Z,10.56
2023-04-23T14:14:46.648Z,10.49
2023-04-23T14:17:16.244Z,10.36
2023-04-23T14:19:45.179Z,10.31
2023-04-23T14:22:14.380Z,10.18
2023-04-23T14:24:51.732Z,10.32
2023-04-23T14:27:35.112Z,10.36
2023-04-23T14:30:10.190Z,10.23
2023-04-23T14:32:40.775Z,10.25
2023-04-23T14:35:10.170Z,10.24
2023-04-23T14:37:39.428Z,10.35
2023-04-23T14:40:09.224Z,10.27
2023-04-23T14:42:41.288Z,10.22
2023-04-23T14:45:10.691Z,10.18
2023-04-23T14:47:41.563Z,10.12
2023-04-23T14:50:11.284Z,10.22
2023-04-23T14:52:40.662Z,10.02
2023-04-23T14:55:10.020Z,10.15
2023-04-23T14:57:39.264Z,10.21
2023-04-23T15:00:09.111Z,10.04
2023-04-23T15:02:39.253Z,10.07
2023-04-23T15:05:11.581Z,10.14
2023-04-23T15:07:42.065Z,9.98
2023-04-23T15:10:12.442Z,10.21
2023-04-23T15:12:41.469Z,10.33
2023-04-23T15:15:44.437Z,10.12
2023-04-23T15:18:18.106Z,10.12
2023-04-23T15:20:47.548Z,10.07
2023-04-23T15:23:16.551Z,10.06
2023-04-23T15:25:45.681Z,9.95
2023-04-23T15:28:14.657Z,9.96
2023-04-23T15:30:45.684Z,9.89
2023-04-23T15:33:14.700Z,9.89
2023-04-23T15:35:43.662Z,9.70
2023-04-23T15:38:12.585Z,9.78
2023-04-23T15:40:43.433Z,9.88
2023-04-23T15:43:15.705Z,9.41
2023-04-23T15:45:48.719Z,9.50
2023-04-23T15:48:18.270Z,9.48
2023-04-23T15:50:47.401Z,9.42
2023-04-23T15:53:16.580Z,9.26
2023-04-23T15:55:45.633Z,9.35
2023-04-23T15:58:14.699Z,9.33
2023-04-23T16:00:43.698Z,9.30
2023-04-23T16:03:15.703Z,9.21
2023-04-23T16:05:50.963Z,9.24
2023-04-23T16:08:20.595Z,9.12
2023-04-23T16:10:49.612Z,9.11
2023-04-23T16:13:20.982Z,9.08
2023-04-23T16:15:49.994Z,9.11
2023-04-23T16:18:19.184Z,9.09
2023-04-23T16:20:48.296Z,9.21
2023-04-23T16:23:17.267Z,9.17
2023-04-23T16:25:46.451Z,9.16
2023-04-23T16:28:15.443Z,9.09
2023-04-23T16:30:57.385Z,9.01
2023-04-23T16:33:28.204Z,8.96
2023-04-23T16:36:02.419Z,8.89
2023-04-23T16:38:33.584Z,8.89
2023-04-23T16:41:05.068Z,8.80
2023-04-23T16:43:34.140Z,8.89
2023-04-23T16:46:03.092Z,9.04
2023-04-23T16:48:32.200Z,9.15
2023-04-23T16:51:01.155Z,9.06
2023-04-23T16:53:30.314Z,8.83
2023-04-23T16:55:59.634Z,8.90
2023-04-23T16:58:29.700Z,8.74
2023-04-23T17:00:58.763Z,8.91
2023-04-23T17:03:27.977Z,8.76
2023-04-23T17:06:12.277Z,8.79
2023-04-23T17:08:41.304Z,8.74
2023-04-23T17:11:10.299Z,8.67
2023-04-23T17:13:40.236Z,8.62
2023-04-23T17:16:09.408Z,8.92
2023-04-23T17:18:38.513Z,8.83
2023-04-23T17:21:07.863Z,8.92
2023-04-23T17:23:36.878Z,9.16
2023-04-23T17:26:06.043Z,9.15
2023-04-23T17:28:35.084Z,8.94
2023-04-23T17:31:04.565Z,9.12
2023-04-23T17:33:33.684Z,9.27
2023-04-23T17:36:02.808Z,9.41
2023-04-23T17:38:32.146Z,9.56
2023-04-23T17:41:01.298Z,9.47
2023-04-23T17:43:32.777Z,9.36
2023-04-23T17:46:04.476Z,9.54
2023-04-23T17:48:33.807Z,9.60
2023-04-23T17:51:03.026Z,9.51
2023-04-23T17:53:32.315Z,9.63
2023-04-23T17:56:03.903Z,9.73
2023-04-23T17:58:32.979Z,9.90
2023-04-23T18:01:03.881Z,10.01
2023-04-23T18:03:33.541Z,9.87
2023-04-23T18:06:03.349Z,10.25
2023-04-23T18:08:32.359Z,9.94
2023-04-23T18:11:01.639Z,9.99
2023-04-23T18:13:31.752Z,10.41
2023-04-23T18:16:01.754Z,10.13
2023-04-23T18:18:30.899Z,10.30
2023-04-23T18:21:00.269Z,10.26
2023-04-23T18:23:29.994Z,10.17
2023-04-23T18:26:02.236Z,9.98
2023-04-23T18:28:35.710Z,9.98
2023-04-23T18:31:05.615Z,10.21
2023-04-23T18:33:42.338Z,10.27
2023-04-23T18:36:22.722Z,10.30
2023-04-23T18:38:51.705Z,10.34
2023-04-23T18:41:20.827Z,10.43
2023-04-23T18:43:49.837Z,10.19
2023-04-23T18:46:18.922Z,10.20
2023-04-23T18:48:52.797Z,10.15
2023-04-23T18:51:32.447Z,10.15
2023-04-23T18:54:02.788Z,9.90
2023-04-23T18:56:32.505Z,9.97
2023-04-23T18:59:01.585Z,10.13
2023-04-23T19:01:30.754Z,10.09
2023-04-23T19:04:03.740Z,10.03
2023-04-23T19:06:33.471Z,10.07
2023-04-23T19:09:02.407Z,9.92
2023-04-23T19:11:35.749Z,10.11
2023-04-23T19:14:05.414Z,9.97
2023-04-23T19:16:35.059Z,10.13
2023-04-23T19:19:04.342Z,9.84
2023-04-23T19:21:33.333Z,9.77
2023-04-23T19:24:02.385Z,9.71
2023-04-23T19:26:31.491Z,9.97
2023-04-23T19:29:00.839Z,9.97
2023-04-23T19:31:31.550Z,10.03
2023-04-23T19:34:00.643Z,10.11
2023-04-23T19:36:30.267Z,10.20
2023-04-23T19:38:59.251Z,10.04
2023-04-23T19:41:30.932Z,10.07
2023-04-23T19:43:59.877Z,9.96
2023-04-23T19:46:29.020Z,10.12
2023-04-23T19:48:58.166Z,10.00
2023-04-23T19:51:30.240Z,10.11
2023-04-23T19:53:59.773Z,10.03
2023-04-23T19:56:28.948Z,10.14
2023-04-23T19:58:58.174Z,10.22
2023-04-23T20:01:28.971Z,10.37
2023-04-23T20:03:58.238Z,10.38
2023-04-23T20:06:27.417Z,10.39
2023-04-23T20:09:09.377Z,10.46
2023-04-23T20:11:38.354Z,10.41
2023-04-23T20:14:07.742Z,10.63
2023-04-23T20:16:37.280Z,10.68
2023-04-23T20:19:10.399Z,10.64
2023-04-23T20:21:40.971Z,10.65
2023-04-23T20:24:11.818Z,10.68
2023-04-23T20:26:42.891Z,10.62
2023-04-23T20:29:12.205Z,10.69
2023-04-23T20:31:41.456Z,10.67
2023-04-23T20:34:11.860Z,10.66
2023-04-23T20:36:40.964Z,10.62
2023-04-23T20:39:10.342Z,10.56
2023-04-23T20:41:39.418Z,10.56
2023-04-23T20:44:08.498Z,10.79
2023-04-23T20:46:37.736Z,10.82
2023-04-23T20:49:06.742Z,10.83
2023-04-23T20:51:35.861Z,10.84
2023-04-23T20:54:05.597Z,10.73
2023-04-23T20:56:34.733Z,10.64
2023-04-23T20:59:05.025Z,10.63
2023-04-23T21:01:34.313Z,10.54
2023-04-23T21:04:03.669Z,10.63
2023-04-23T21:06:34.180Z,10.69
2023-04-23T21:09:03.331Z,10.75
2023-04-23T21:11:33.303Z,10.94
2023-04-23T21:14:02.606Z,10.88
2023-04-23T21:16:32.055Z,10.97
2023-04-23T21:19:01.310Z,10.79
2023-04-23T21:21:32.950Z,10.73
2023-04-23T21:24:02.047Z,10.88
2023-04-23T21:26:32.385Z,10.97
2023-04-23T21:29:01.508Z,11.07
2023-04-23T21:31:36.687Z,10.96
2023-04-23T21:34:05.804Z,10.88
2023-04-23T21:36:34.798Z,10.85
2023-04-23T21:39:04.251Z,10.77
2023-04-23T21:41:33.829Z,10.81
2023-04-23T21:44:03.024Z,10.83
2023-04-23T21:46:32.906Z,10.77
2023-04-23T21:49:03.082Z,10.78
2023-04-23T21:51:37.143Z,10.64
2023-04-23T21:54:07.050Z,10.52
2023-04-23T21:56:36.747Z,10.58
2023-04-23T21:59:05.622Z,10.74
2023-04-23T22:01:36.662Z,10.78
2023-04-23T22:04:06.162Z,10.79
2023-04-23T22:06:36.059Z,10.87
2023-04-23T22:09:06.703Z,10.81
2023-04-23T22:11:35.821Z,10.93
2023-04-23T22:14:04.846Z,11.09
2023-04-23T22:16:35.032Z,11.21
2023-04-23T22:19:05.332Z,11.22
2023-04-23T22:21:34.351Z,11.44
2023-04-23T22:24:04.485Z,11.38
2023-04-23T22:26:34.807Z,11.50
2023-04-23T22:29:04.100Z,11.43
2023-04-23T22:31:33.179Z,11.40
2023-04-23T22:34:02.563Z,11.43
2023-04-23T22:36:32.750Z,11.49
2023-04-23T22:39:02.732Z,11.27
2023-04-23T22:41:33.598Z,11.36
2023-04-23T22:44:02.975Z,11.34
2023-04-23T22:46:32.599Z,11.24
2023-04-23T22:49:02.050Z,11.16
2023-04-23T22:51:34.168Z,11.01
2023-04-23T22:54:03.308Z,11.12
2023-04-23T22:56:32.273Z,11.17
2023-04-23T22:59:01.310Z,11.04
2023-04-23T23:01:30.198Z,11.11
2023-04-23T23:03:59.280Z,11.13
2023-04-23T23:06:28.801Z,11.15
2023-04-23T23:08:57.769Z,11.21
2023-04-23T23:11:29.995Z,11.10
2023-04-23T23:13:59.392Z,11.00
2023-04-23T23:16:28.653Z,11.08
2023-04-23T23:18:58.876Z,11.07
2023-04-23T23:21:28.031Z,11.24
2023-04-23T23:23:57.195Z,11.09
2023-04-23T23:26:27.045Z,11.03
2023-04-23T23:28:58.871Z,10.98
2023-04-23T23:31:28.582Z,11.01
2023-04-23T23:33:57.776Z,10.96
2023-04-23T23:36:26.936Z,11.01
2023-04-23T23:38:56.131Z,10.92
2023-04-23T23:41:25.132Z,10.96
2023-04-23T23:43:54.776Z,10.79
2023-04-23T23:46:23.798Z,10.84
2023-04-23T23:48:53.079Z,10.77
2023-04-23T23:51:22.148Z,10.71
2023-04-23T23:53:51.118Z,10.62
2023-04-23T23:56:20.833Z,10.65
2023-04-23T23:58:49.816Z,10.61
